sensor_id;sensor_type;location;lat;lon;timestamp;P1;durP1;ratioP1;P2;durP2;ratioP2
81374;SDS011;70828;51.158;4.998;2023-07-22T00:01:21;7.25;;;4.32;;
81374;SDS011;70828;51.158;4.998;2023-07-22T00:03:48;6.55;;;4.85;;
81374;SDS011;70828;51.158;4.998;2023-07-22T00:06:14;5.75;;;3.83;;
81374;SDS011;70828;51.158;4.998;2023-07-22T00:08:41;6.05;;;3.67;;
81374;SDS011;70828;51.158;4.998;2023-07-22T00:11:08;5.85;;;3.45;;
81374;SDS011;70828;51.158;4.998;2023-07-22T00:13:36;7.55;;;4.20;;
81374;SDS011;70828;51.158;4.998;2023-07-22T00:16:02;8.20;;;3.72;;
81374;SDS011;70828;51.158;4.998;2023-07-22T00:18:30;7.88;;;4.15;;
81374;SDS011;70828;51.158;4.998;2023-07-22T00:20:57;7.20;;;4.40;;
81374;SDS011;70828;51.158;4.998;2023-07-22T00:23:23;6.57;;;3.97;;
81374;SDS011;70828;51.158;4.998;2023-07-22T00:25:50;7.03;;;4.18;;
81374;SDS011;70828;51.158;4.998;2023-07-22T00:28:17;7.03;;;4.03;;
81374;SDS011;70828;51.158;4.998;2023-07-22T00:30:45;10.40;;;4.90;;
81374;SDS011;70828;51.158;4.998;2023-07-22T00:33:14;8.38;;;4.40;;
81374;SDS011;70828;51.158;4.998;2023-07-22T00:35:40;8.95;;;4.70;;
81374;SDS011;70828;51.158;4.998;2023-07-22T00:38:07;6.30;;;4.22;;
81374;SDS011;70828;51.158;4.998;2023-07-22T00:40:34;7.30;;;3.97;;
81374;SDS011;70828;51.158;4.998;2023-07-22T00:43:02;8.45;;;4.63;;
81374;SDS011;70828;51.158;4.998;2023-07-22T00:45:30;8.55;;;4.30;;
81374;SDS011;70828;51.158;4.998;2023-07-22T00:47:58;7.82;;;4.40;;
81374;SDS011;70828;51.158;4.998;2023-07-22T00:50:24;8.88;;;4.70;;
81374;SDS011;70828;51.158;4.998;2023-07-22T00:52:51;10.65;;;4.57;;
81374;SDS011;70828;51.158;4.998;2023-07-22T00:55:18;9.27;;;5.10;;
81374;SDS011;70828;51.158;4.998;2023-07-22T00:57:45;9.48;;;4.68;;
81374;SDS011;70828;51.158;4.998;2023-07-22T01:00:12;8.73;;;4.70;;
81374;SDS011;70828;51.158;4.998;2023-07-22T01:02:41;11.40;;;4.72;;
81374;SDS011;70828;51.158;4.998;2023-07-22T01:05:10;9.52;;;5.15;;
81374;SDS011;70828;51.158;4.998;2023-07-22T01:07:37;10.88;;;4.82;;
81374;SDS011;70828;51.158;4.998;2023-07-22T01:10:05;10.18;;;5.95;;
81374;SDS011;70828;51.158;4.998;2023-07-22T01:12:33;9.25;;;4.93;;
81374;SDS011;70828;51.158;4.998;2023-07-22T01:14:59;11.02;;;5.40;;
81374;SDS011;70828;51.158;4.998;2023-07-22T01:17:28;9.73;;;5.38;;
81374;SDS011;70828;51.158;4.998;2023-07-22T01:19:55;9.43;;;5.80;;
81374;SDS011;70828;51.158;4.998;2023-07-22T01:22:23;11.13;;;5.30;;
81374;SDS011;70828;51.158;4.998;2023-07-22T01:24:51;9.80;;;5.82;;
81374;SDS011;70828;51.158;4.998;2023-07-22T01:27:18;9.20;;;5.40;;
81374;SDS011;70828;51.158;4.998;2023-07-22T01:29:45;9.48;;;5.00;;
81374;SDS011;70828;51.158;4.998;2023-07-22T01:32:11;9.10;;;5.40;;
81374;SDS011;70828;51.158;4.998;2023-07-22T01:34:38;9.80;;;5.50;;
81374;SDS011;70828;51.158;4.998;2023-07-22T01:37:05;17.60;;;5.72;;
81374;SDS011;70828;51.158;4.998;2023-07-22T01:39:32;11.07;;;5.65;;
81374;SDS011;70828;51.158;4.998;2023-07-22T01:41:59;9.80;;;5.30;;
81374;SDS011;70828;51.158;4.998;2023-07-22T01:44:26;13.48;;;5.60;;
81374;SDS011;70828;51.158;4.998;2023-07-22T01:46:53;11.55;;;5.43;;
81374;SDS011;70828;51.158;4.998;2023-07-22T01:49:19;9.35;;;5.55;;
81374;SDS011;70828;51.158;4.998;2023-07-22T01:51:46;11.73;;;5.50;;
81374;SDS011;70828;51.158;4.998;2023-07-22T01:54:12;10.02;;;5.57;;
81374;SDS011;70828;51.158;4.998;2023-07-22T01:56:39;10.93;;;5.15;;
81374;SDS011;70828;51.158;4.998;2023-07-22T01:59:07;11.30;;;5.85;;
81374;SDS011;70828;51.158;4.998;2023-07-22T02:01:34;9.40;;;5.07;;
81374;SDS011;70828;51.158;4.998;2023-07-22T02:04:01;10.02;;;5.40;;
81374;SDS011;70828;51.158;4.998;2023-07-22T02:06:28;11.90;;;6.00;;
81374;SDS011;70828;51.158;4.998;2023-07-22T02:08:54;14.13;;;5.75;;
81374;SDS011;70828;51.158;4.998;2023-07-22T02:11:22;12.40;;;5.47;;
81374;SDS011;70828;51.158;4.998;2023-07-22T02:13:48;10.98;;;5.20;;
81374;SDS011;70828;51.158;4.998;2023-07-22T02:16:16;9.70;;;5.43;;
81374;SDS011;70828;51.158;4.998;2023-07-22T02:18:43;13.27;;;5.75;;
81374;SDS011;70828;51.158;4.998;2023-07-22T02:21:10;11.32;;;6.10;;
81374;SDS011;70828;51.158;4.998;2023-07-22T02:23:37;10.00;;;5.65;;
81374;SDS011;70828;51.158;4.998;2023-07-22T02:26:03;8.95;;;5.45;;
81374;SDS011;70828;51.158;4.998;2023-07-22T02:28:30;11.98;;;5.28;;
81374;SDS011;70828;51.158;4.998;2023-07-22T02:31:00;9.88;;;5.90;;
81374;SDS011;70828;51.158;4.998;2023-07-22T02:33:28;9.48;;;5.57;;
81374;SDS011;70828;51.158;4.998;2023-07-22T02:35:55;8.80;;;5.47;;
81374;SDS011;70828;51.158;4.998;2023-07-22T02:38:21;10.73;;;6.30;;
81374;SDS011;70828;51.158;4.998;2023-07-22T02:40:48;10.23;;;5.60;;
81374;SDS011;70828;51.158;4.998;2023-07-22T02:43:15;10.55;;;5.28;;
81374;SDS011;70828;51.158;4.998;2023-07-22T02:45:41;9.57;;;5.60;;
81374;SDS011;70828;51.158;4.998;2023-07-22T02:48:08;12.88;;;6.32;;
81374;SDS011;70828;51.158;4.998;2023-07-22T02:50:36;11.90;;;5.43;;
81374;SDS011;70828;51.158;4.998;2023-07-22T02:53:02;11.98;;;5.22;;
81374;SDS011;70828;51.158;4.998;2023-07-22T02:55:29;10.93;;;5.40;;
81374;SDS011;70828;51.158;4.998;2023-07-22T02:57:56;11.82;;;5.38;;
81374;SDS011;70828;51.158;4.998;2023-07-22T03:00:22;11.25;;;5.93;;
81374;SDS011;70828;51.158;4.998;2023-07-22T03:02:50;10.32;;;5.45;;
81374;SDS011;70828;51.158;4.998;2023-07-22T03:05:17;10.00;;;5.30;;
81374;SDS011;70828;51.158;4.998;2023-07-22T03:07:45;13.52;;;6.07;;
81374;SDS011;70828;51.158;4.998;2023-07-22T03:10:12;11.48;;;5.88;;
81374;SDS011;70828;51.158;4.998;2023-07-22T03:12:39;8.48;;;5.00;;
81374;SDS011;70828;51.158;4.998;2023-07-22T03:15:05;13.13;;;5.75;;
81374;SDS011;70828;51.158;4.998;2023-07-22T03:17:33;11.45;;;6.10;;
81374;SDS011;70828;51.158;4.998;2023-07-22T03:20:00;10.68;;;5.55;;
81374;SDS011;70828;51.158;4.998;2023-07-22T03:22:27;9.13;;;5.18;;
81374;SDS011;70828;51.158;4.998;2023-07-22T03:24:55;12.07;;;5.75;;
81374;SDS011;70828;51.158;4.998;2023-07-22T03:27:21;11.73;;;5.93;;
81374;SDS011;70828;51.158;4.998;2023-07-22T03:29:48;12.50;;;5.47;;
81374;SDS011;70828;51.158;4.998;2023-07-22T03:32:14;12.20;;;6.40;;
81374;SDS011;70828;51.158;4.998;2023-07-22T03:34:41;12.60;;;4.95;;
81374;SDS011;70828;51.158;4.998;2023-07-22T03:37:08;8.05;;;5.18;;
81374;SDS011;70828;51.158;4.998;2023-07-22T03:39:34;10.13;;;5.28;;
81374;SDS011;70828;51.158;4.998;2023-07-22T03:42:02;9.52;;;5.45;;
81374;SDS011;70828;51.158;4.998;2023-07-22T03:44:30;11.38;;;5.20;;
81374;SDS011;70828;51.158;4.998;2023-07-22T03:46:56;13.27;;;6.55;;
81374;SDS011;70828;51.158;4.998;2023-07-22T03:49:23;8.73;;;4.90;;
81374;SDS011;70828;51.158;4.998;2023-07-22T03:51:50;8.65;;;5.38;;
81374;SDS011;70828;51.158;4.998;2023-07-22T03:54:17;10.98;;;5.45;;
81374;SDS011;70828;51.158;4.998;2023-07-22T03:56:43;11.23;;;4.97;;
81374;SDS011;70828;51.158;4.998;2023-07-22T03:59:11;9.68;;;4.97;;
81374;SDS011;70828;51.158;4.998;2023-07-22T04:01:38;9.73;;;5.50;;
81374;SDS011;70828;51.158;4.998;2023-07-22T04:04:04;10.68;;;5.82;;
81374;SDS011;70828;51.158;4.998;2023-07-22T04:06:31;9.13;;;5.00;;
81374;SDS011;70828;51.158;4.998;2023-07-22T04:08:57;11.13;;;5.88;;
81374;SDS011;70828;51.158;4.998;2023-07-22T04:11:25;8.70;;;4.85;;
81374;SDS011;70828;51.158;4.998;2023-07-22T04:13:52;11.77;;;5.85;;
81374;SDS011;70828;51.158;4.998;2023-07-22T04:16:20;9.15;;;5.65;;
81374;SDS011;70828;51.158;4.998;2023-07-22T04:18:46;13.80;;;7.05;;
81374;SDS011;70828;51.158;4.998;2023-07-22T04:21:13;12.25;;;5.78;;
81374;SDS011;70828;51.158;4.998;2023-07-22T04:23:39;11.35;;;5.85;;
81374;SDS011;70828;51.158;4.998;2023-07-22T04:26:06;15.52;;;5.97;;
81374;SDS011;70828;51.158;4.998;2023-07-22T04:28:33;15.20;;;5.93;;
81374;SDS011;70828;51.158;4.998;2023-07-22T04:31:00;16.15;;;6.55;;
81374;SDS011;70828;51.158;4.998;2023-07-22T04:33:28;10.10;;;6.05;;
81374;SDS011;70828;51.158;4.998;2023-07-22T04:35:55;10.38;;;5.55;;
81374;SDS011;70828;51.158;4.998;2023-07-22T04:38:24;10.88;;;5.78;;
81374;SDS011;70828;51.158;4.998;2023-07-22T04:40:50;11.60;;;5.53;;
81374;SDS011;70828;51.158;4.998;2023-07-22T04:43:17;11.23;;;6.50;;
81374;SDS011;70828;51.158;4.998;2023-07-22T04:45:44;9.43;;;5.57;;
81374;SDS011;70828;51.158;4.998;2023-07-22T04:48:12;13.90;;;6.38;;
81374;SDS011;70828;51.158;4.998;2023-07-22T04:50:41;14.43;;;6.80;;
81374;SDS011;70828;51.158;4.998;2023-07-22T04:53:10;13.23;;;6.55;;
81374;SDS011;70828;51.158;4.998;2023-07-22T04:55:38;14.27;;;6.13;;
81374;SDS011;70828;51.158;4.998;2023-07-22T04:58:04;12.00;;;5.93;;
81374;SDS011;70828;51.158;4.998;2023-07-22T05:00:31;15.10;;;5.90;;
81374;SDS011;70828;51.158;4.998;2023-07-22T05:02:58;18.75;;;7.63;;
81374;SDS011;70828;51.158;4.998;2023-07-22T05:05:25;11.65;;;6.60;;
81374;SDS011;70828;51.158;4.998;2023-07-22T05:07:53;11.05;;;6.50;;
81374;SDS011;70828;51.158;4.998;2023-07-22T05:10:20;15.48;;;6.80;;
81374;SDS011;70828;51.158;4.998;2023-07-22T05:12:47;16.15;;;7.20;;
81374;SDS011;70828;51.158;4.998;2023-07-22T05:15:13;11.15;;;6.10;;
81374;SDS011;70828;51.158;4.998;2023-07-22T05:17:40;12.95;;;6.18;;
81374;SDS011;70828;51.158;4.998;2023-07-22T05:20:07;14.95;;;6.75;;
81374;SDS011;70828;51.158;4.998;2023-07-22T05:22:35;15.23;;;6.55;;
81374;SDS011;70828;51.158;4.998;2023-07-22T05:25:04;12.93;;;6.32;;
81374;SDS011;70828;51.158;4.998;2023-07-22T05:27:31;11.18;;;5.85;;
81374;SDS011;70828;51.158;4.998;2023-07-22T05:29:58;19.20;;;7.38;;
81374;SDS011;70828;51.158;4.998;2023-07-22T05:32:25;14.13;;;6.18;;
81374;SDS011;70828;51.158;4.998;2023-07-22T05:34:51;13.98;;;6.20;;
81374;SDS011;70828;51.158;4.998;2023-07-22T05:37:18;17.83;;;7.63;;
81374;SDS011;70828;51.158;4.998;2023-07-22T05:39:45;15.27;;;6.60;;
81374;SDS011;70828;51.158;4.998;2023-07-22T05:42:12;17.58;;;7.10;;
81374;SDS011;70828;51.158;4.998;2023-07-22T05:44:39;15.32;;;7.45;;
81374;SDS011;70828;51.158;4.998;2023-07-22T05:47:06;12.40;;;5.82;;
81374;SDS011;70828;51.158;4.998;2023-07-22T05:49:32;12.27;;;6.30;;
81374;SDS011;70828;51.158;4.998;2023-07-22T05:51:59;14.63;;;6.63;;
81374;SDS011;70828;51.158;4.998;2023-07-22T05:54:25;13.55;;;6.22;;
81374;SDS011;70828;51.158;4.998;2023-07-22T05:56:52;16.13;;;6.75;;
81374;SDS011;70828;51.158;4.998;2023-07-22T05:59:21;13.80;;;6.50;;
81374;SDS011;70828;51.158;4.998;2023-07-22T06:01:47;14.40;;;6.20;;
81374;SDS011;70828;51.158;4.998;2023-07-22T06:04:14;11.35;;;6.50;;
81374;SDS011;70828;51.158;4.998;2023-07-22T06:06:40;14.32;;;6.18;;
81374;SDS011;70828;51.158;4.998;2023-07-22T06:09:07;13.60;;;6.93;;
81374;SDS011;70828;51.158;4.998;2023-07-22T06:11:34;18.98;;;7.32;;
81374;SDS011;70828;51.158;4.998;2023-07-22T06:14:01;11.75;;;5.60;;
81374;SDS011;70828;51.158;4.998;2023-07-22T06:16:29;18.77;;;6.50;;
81374;SDS011;70828;51.158;4.998;2023-07-22T06:18:55;13.65;;;6.18;;
81374;SDS011;70828;51.158;4.998;2023-07-22T06:21:22;14.48;;;6.32;;
81374;SDS011;70828;51.158;4.998;2023-07-22T06:23:49;13.55;;;5.97;;
81374;SDS011;70828;51.158;4.998;2023-07-22T06:26:16;12.90;;;5.68;;
81374;SDS011;70828;51.158;4.998;2023-07-22T06:28:43;14.23;;;6.78;;
81374;SDS011;70828;51.158;4.998;2023-07-22T06:31:09;11.10;;;6.13;;
81374;SDS011;70828;51.158;4.998;2023-07-22T06:33:37;12.20;;;6.22;;
81374;SDS011;70828;51.158;4.998;2023-07-22T06:36:04;15.80;;;5.80;;
81374;SDS011;70828;51.158;4.998;2023-07-22T06:38:30;15.15;;;5.75;;
81374;SDS011;70828;51.158;4.998;2023-07-22T06:40:57;14.40;;;5.57;;
81374;SDS011;70828;51.158;4.998;2023-07-22T06:43:24;12.23;;;6.40;;
81374;SDS011;70828;51.158;4.998;2023-07-22T06:45:50;14.90;;;6.45;;
81374;SDS011;70828;51.158;4.998;2023-07-22T06:48:17;11.40;;;5.97;;
81374;SDS011;70828;51.158;4.998;2023-07-22T06:50:48;11.15;;;5.43;;
81374;SDS011;70828;51.158;4.998;2023-07-22T06:53:14;15.18;;;5.80;;
81374;SDS011;70828;51.158;4.998;2023-07-22T06:55:47;10.80;;;6.00;;
81374;SDS011;70828;51.158;4.998;2023-07-22T06:58:14;14.68;;;6.15;;
81374;SDS011;70828;51.158;4.998;2023-07-22T07:00:41;10.13;;;5.70;;
81374;SDS011;70828;51.158;4.998;2023-07-22T07:03:08;13.88;;;6.45;;
81374;SDS011;70828;51.158;4.998;2023-07-22T07:05:34;12.80;;;6.07;;
81374;SDS011;70828;51.158;4.998;2023-07-22T07:08:02;13.60;;;5.88;;
81374;SDS011;70828;51.158;4.998;2023-07-22T07:10:29;13.90;;;5.32;;
81374;SDS011;70828;51.158;4.998;2023-07-22T07:12:56;16.65;;;6.47;;
81374;SDS011;70828;51.158;4.998;2023-07-22T07:15:23;13.25;;;5.63;;
81374;SDS011;70828;51.158;4.998;2023-07-22T07:17:50;12.60;;;6.00;;
81374;SDS011;70828;51.158;4.998;2023-07-22T07:20:16;14.63;;;6.25;;
81374;SDS011;70828;51.158;4.998;2023-07-22T07:22:43;15.57;;;5.60;;
81374;SDS011;70828;51.158;4.998;2023-07-22T07:25:11;13.25;;;5.60;;
81374;SDS011;70828;51.158;4.998;2023-07-22T07:27:40;13.45;;;5.93;;
81374;SDS011;70828;51.158;4.998;2023-07-22T07:30:07;13.15;;;5.38;;
81374;SDS011;70828;51.158;4.998;2023-07-22T07:32:35;10.75;;;4.78;;
81374;SDS011;70828;51.158;4.998;2023-07-22T07:35:02;13.23;;;5.95;;
81374;SDS011;70828;51.158;4.998;2023-07-22T07:37:29;10.25;;;5.25;;
81374;SDS011;70828;51.158;4.998;2023-07-22T07:39:57;11.15;;;5.25;;
81374;SDS011;70828;51.158;4.998;2023-07-22T07:42:26;13.23;;;5.00;;
81374;SDS011;70828;51.158;4.998;2023-07-22T07:44:52;10.77;;;5.05;;
81374;SDS011;70828;51.158;4.998;2023-07-22T07:47:19;11.95;;;5.05;;
81374;SDS011;70828;51.158;4.998;2023-07-22T07:49:46;10.90;;;5.32;;
81374;SDS011;70828;51.158;4.998;2023-07-22T07:52:15;9.18;;;4.60;;
81374;SDS011;70828;51.158;4.998;2023-07-22T07:54:43;11.07;;;4.70;;
81374;SDS011;70828;51.158;4.998;2023-07-22T07:57:10;12.32;;;4.60;;
81374;SDS011;70828;51.158;4.998;2023-07-22T07:59:39;11.40;;;4.38;;
81374;SDS011;70828;51.158;4.998;2023-07-22T08:02:08;7.45;;;4.13;;
81374;SDS011;70828;51.158;4.998;2023-07-22T08:04:35;10.32;;;4.85;;
81374;SDS011;70828;51.158;4.998;2023-07-22T08:07:03;11.65;;;5.07;;
81374;SDS011;70828;51.158;4.998;2023-07-22T08:09:32;13.20;;;5.18;;
81374;SDS011;70828;51.158;4.998;2023-07-22T08:12:01;16.85;;;6.28;;
81374;SDS011;70828;51.158;4.998;2023-07-22T08:14:29;9.70;;;3.83;;
81374;SDS011;70828;51.158;4.998;2023-07-22T08:16:57;10.00;;;4.07;;
81374;SDS011;70828;51.158;4.998;2023-07-22T08:19:24;9.77;;;4.75;;
81374;SDS011;70828;51.158;4.998;2023-07-22T08:21:51;10.77;;;3.88;;
81374;SDS011;70828;51.158;4.998;2023-07-22T08:24:17;7.43;;;3.38;;
81374;SDS011;70828;51.158;4.998;2023-07-22T08:26:44;7.40;;;3.67;;
81374;SDS011;70828;51.158;4.998;2023-07-22T08:29:11;14.15;;;4.68;;
81374;SDS011;70828;51.158;4.998;2023-07-22T08:31:39;8.65;;;4.00;;
81374;SDS011;70828;51.158;4.998;2023-07-22T08:34:10;9.55;;;4.03;;
81374;SDS011;70828;51.158;4.998;2023-07-22T08:36:37;7.47;;;3.30;;
81374;SDS011;70828;51.158;4.998;2023-07-22T08:39:04;8.98;;;3.03;;
81374;SDS011;70828;51.158;4.998;2023-07-22T08:41:30;6.85;;;3.20;;
81374;SDS011;70828;51.158;4.998;2023-07-22T08:43:57;8.73;;;4.25;;
81374;SDS011;70828;51.158;4.998;2023-07-22T08:46:27;7.32;;;3.70;;
81374;SDS011;70828;51.158;4.998;2023-07-22T08:48:55;7.05;;;2.55;;
81374;SDS011;70828;51.158;4.998;2023-07-22T08:51:23;6.78;;;3.03;;
81374;SDS011;70828;51.158;4.998;2023-07-22T08:53:53;5.47;;;2.90;;
81374;SDS011;70828;51.158;4.998;2023-07-22T08:56:21;4.85;;;2.50;;
81374;SDS011;70828;51.158;4.998;2023-07-22T08:58:49;6.47;;;3.08;;
81374;SDS011;70828;51.158;4.998;2023-07-22T09:01:17;9.57;;;3.10;;
81374;SDS011;70828;51.158;4.998;2023-07-22T09:03:44;7.10;;;2.88;;
81374;SDS011;70828;51.158;4.998;2023-07-22T09:06:10;7.25;;;3.05;;
81374;SDS011;70828;51.158;4.998;2023-07-22T09:08:38;8.30;;;2.90;;
81374;SDS011;70828;51.158;4.998;2023-07-22T09:11:05;6.53;;;2.45;;
81374;SDS011;70828;51.158;4.998;2023-07-22T09:13:32;5.95;;;2.30;;
81374;SDS011;70828;51.158;4.998;2023-07-22T09:15:59;3.70;;;1.90;;
81374;SDS011;70828;51.158;4.998;2023-07-22T09:18:27;6.07;;;1.83;;
81374;SDS011;70828;51.158;4.998;2023-07-22T09:20:53;6.28;;;1.92;;
81374;SDS011;70828;51.158;4.998;2023-07-22T09:23:31;6.90;;;2.58;;
81374;SDS011;70828;51.158;4.998;2023-07-22T09:26:11;6.18;;;1.98;;
81374;SDS011;70828;51.158;4.998;2023-07-22T09:28:50;7.10;;;1.92;;
81374;SDS011;70828;51.158;4.998;2023-07-22T09:31:18;7.45;;;1.92;;
81374;SDS011;70828;51.158;4.998;2023-07-22T09:33:46;6.63;;;1.90;;
81374;SDS011;70828;51.158;4.998;2023-07-22T09:36:13;5.03;;;1.90;;
81374;SDS011;70828;51.158;4.998;2023-07-22T09:38:39;8.23;;;1.80;;
81374;SDS011;70828;51.158;4.998;2023-07-22T09:41:06;3.20;;;1.80;;
81374;SDS011;70828;51.158;4.998;2023-07-22T09:43:37;3.55;;;1.60;;
81374;SDS011;70828;51.158;4.998;2023-07-22T09:46:08;5.22;;;1.88;;
81374;SDS011;70828;51.158;4.998;2023-07-22T09:48:42;3.33;;;1.58;;
81374;SDS011;70828;51.158;4.998;2023-07-22T09:51:13;3.97;;;2.20;;
81374;SDS011;70828;51.158;4.998;2023-07-22T09:53:46;5.00;;;1.40;;
81374;SDS011;70828;51.158;4.998;2023-07-22T09:56:14;3.38;;;1.85;;
81374;SDS011;70828;51.158;4.998;2023-07-22T09:58:42;3.40;;;2.10;;
81374;SDS011;70828;51.158;4.998;2023-07-22T10:01:10;4.13;;;1.85;;
81374;SDS011;70828;51.158;4.998;2023-07-22T10:03:39;3.80;;;1.65;;
81374;SDS011;70828;51.158;4.998;2023-07-22T10:06:07;3.50;;;1.58;;
81374;SDS011;70828;51.158;4.998;2023-07-22T10:08:37;4.57;;;1.50;;
81374;SDS011;70828;51.158;4.998;2023-07-22T10:11:05;3.97;;;1.50;;
81374;SDS011;70828;51.158;4.998;2023-07-22T10:13:32;5.85;;;1.45;;
81374;SDS011;70828;51.158;4.998;2023-07-22T10:16:00;2.70;;;1.35;;
81374;SDS011;70828;51.158;4.998;2023-07-22T10:18:27;1.98;;;1.30;;
81374;SDS011;70828;51.158;4.998;2023-07-22T10:20:55;3.17;;;1.33;;
81374;SDS011;70828;51.158;4.998;2023-07-22T10:23:22;2.15;;;1.20;;
81374;SDS011;70828;51.158;4.998;2023-07-22T10:25:52;2.88;;;1.30;;
81374;SDS011;70828;51.158;4.998;2023-07-22T10:28:19;3.20;;;1.15;;
81374;SDS011;70828;51.158;4.998;2023-07-22T10:30:46;2.45;;;1.15;;
81374;SDS011;70828;51.158;4.998;2023-07-22T10:33:14;3.90;;;1.23;;
81374;SDS011;70828;51.158;4.998;2023-07-22T10:35:43;3.42;;;1.48;;
81374;SDS011;70828;51.158;4.998;2023-07-22T10:38:13;3.63;;;1.25;;
81374;SDS011;70828;51.158;4.998;2023-07-22T10:40:44;2.67;;;1.30;;
81374;SDS011;70828;51.158;4.998;2023-07-22T10:43:11;2.33;;;1.17;;
81374;SDS011;70828;51.158;4.998;2023-07-22T10:45:40;4.55;;;1.10;;
81374;SDS011;70828;51.158;4.998;2023-07-22T10:48:07;1.58;;;1.20;;
81374;SDS011;70828;51.158;4.998;2023-07-22T10:50:39;2.80;;;1.15;;
81374;SDS011;70828;51.158;4.998;2023-07-22T10:53:08;3.05;;;1.50;;
81374;SDS011;70828;51.158;4.998;2023-07-22T10:58:30;3.10;;;1.27;;
81374;SDS011;70828;51.158;4.998;2023-07-22T11:01:05;2.58;;;1.27;;
81374;SDS011;70828;51.158;4.998;2023-07-22T11:06:54;2.97;;;1.25;;
81374;SDS011;70828;51.158;4.998;2023-07-22T11:09:34;2.53;;;0.98;;
81374;SDS011;70828;51.158;4.998;2023-07-22T11:12:04;3.72;;;1.50;;
81374;SDS011;70828;51.158;4.998;2023-07-22T11:14:32;1.67;;;0.98;;
81374;SDS011;70828;51.158;4.998;2023-07-22T11:17:00;2.58;;;1.50;;
81374;SDS011;70828;51.158;4.998;2023-07-22T11:19:28;3.17;;;1.00;;
81374;SDS011;70828;51.158;4.998;2023-07-22T11:21:57;3.60;;;1.42;;
81374;SDS011;70828;51.158;4.998;2023-07-22T11:24:24;1.83;;;1.13;;
81374;SDS011;70828;51.158;4.998;2023-07-22T11:26:51;2.10;;;1.10;;
81374;SDS011;70828;51.158;4.998;2023-07-22T11:29:18;3.25;;;1.15;;
81374;SDS011;70828;51.158;4.998;2023-07-22T11:31:46;3.08;;;1.20;;
81374;SDS011;70828;51.158;4.998;2023-07-22T11:34:14;4.22;;;1.35;;
81374;SDS011;70828;51.158;4.998;2023-07-22T11:36:41;5.05;;;1.25;;
81374;SDS011;70828;51.158;4.998;2023-07-22T11:39:10;6.70;;;1.52;;
81374;SDS011;70828;51.158;4.998;2023-07-22T11:41:37;7.45;;;1.20;;
81374;SDS011;70828;51.158;4.998;2023-07-22T11:44:06;2.65;;;1.38;;
81374;SDS011;70828;51.158;4.998;2023-07-22T11:46:34;1.55;;;0.95;;
81374;SDS011;70828;51.158;4.998;2023-07-22T11:49:02;2.13;;;1.25;;
81374;SDS011;70828;51.158;4.998;2023-07-22T11:51:29;3.03;;;0.95;;
81374;SDS011;70828;51.158;4.998;2023-07-22T11:53:56;1.88;;;0.98;;
81374;SDS011;70828;51.158;4.998;2023-07-22T11:56:25;4.03;;;1.50;;
81374;SDS011;70828;51.158;4.998;2023-07-22T11:58:53;2.50;;;1.17;;
81374;SDS011;70828;51.158;4.998;2023-07-22T12:01:20;1.77;;;0.93;;
81374;SDS011;70828;51.158;4.998;2023-07-22T12:03:47;2.85;;;0.95;;
81374;SDS011;70828;51.158;4.998;2023-07-22T12:06:15;2.63;;;1.15;;
81374;SDS011;70828;51.158;4.998;2023-07-22T12:08:45;3.80;;;1.10;;
81374;SDS011;70828;51.158;4.998;2023-07-22T12:11:16;2.13;;;0.90;;
81374;SDS011;70828;51.158;4.998;2023-07-22T12:13:45;2.35;;;1.15;;
81374;SDS011;70828;51.158;4.998;2023-07-22T12:16:21;2.88;;;1.42;;
81374;SDS011;70828;51.158;4.998;2023-07-22T12:18:49;2.28;;;1.00;;
81374;SDS011;70828;51.158;4.998;2023-07-22T12:21:16;3.65;;;1.17;;
81374;SDS011;70828;51.158;4.998;2023-07-22T12:23:42;1.15;;;0.80;;
81374;SDS011;70828;51.158;4.998;2023-07-22T12:26:09;3.72;;;1.30;;
81374;SDS011;70828;51.158;4.998;2023-07-22T12:28:36;3.30;;;1.15;;
81374;SDS011;70828;51.158;4.998;2023-07-22T12:31:04;3.03;;;1.23;;
81374;SDS011;70828;51.158;4.998;2023-07-22T12:33:31;2.67;;;0.90;;
81374;SDS011;70828;51.158;4.998;2023-07-22T12:35:57;1.30;;;0.93;;
81374;SDS011;70828;51.158;4.998;2023-07-22T12:38:24;2.17;;;1.20;;
81374;SDS011;70828;51.158;4.998;2023-07-22T12:40:50;2.08;;;1.42;;
81374;SDS011;70828;51.158;4.998;2023-07-22T12:43:17;3.63;;;1.20;;
81374;SDS011;70828;51.158;4.998;2023-07-22T12:45:44;3.15;;;1.10;;
81374;SDS011;70828;51.158;4.998;2023-07-22T12:48:12;2.30;;;1.13;;
81374;SDS011;70828;51.158;4.998;2023-07-22T12:50:38;3.92;;;1.42;;
81374;SDS011;70828;51.158;4.998;2023-07-22T12:53:05;4.20;;;1.30;;
81374;SDS011;70828;51.158;4.998;2023-07-22T12:55:32;2.40;;;1.33;;
81374;SDS011;70828;51.158;4.998;2023-07-22T12:57:58;2.50;;;1.33;;
81374;SDS011;70828;51.158;4.998;2023-07-22T13:00:25;2.17;;;1.17;;
81374;SDS011;70828;51.158;4.998;2023-07-22T13:02:52;2.28;;;1.60;;
81374;SDS011;70828;51.158;4.998;2023-07-22T13:05:20;3.03;;;1.45;;
81374;SDS011;70828;51.158;4.998;2023-07-22T13:07:46;2.35;;;1.10;;
81374;SDS011;70828;51.158;4.998;2023-07-22T13:10:13;2.40;;;1.30;;
81374;SDS011;70828;51.158;4.998;2023-07-22T13:12:43;3.20;;;1.55;;
81374;SDS011;70828;51.158;4.998;2023-07-22T13:15:10;2.38;;;1.40;;
81374;SDS011;70828;51.158;4.998;2023-07-22T13:17:36;2.10;;;1.30;;
81374;SDS011;70828;51.158;4.998;2023-07-22T13:20:03;3.35;;;1.50;;
81374;SDS011;70828;51.158;4.998;2023-07-22T13:22:33;3.60;;;1.52;;
81374;SDS011;70828;51.158;4.998;2023-07-22T13:25:00;2.95;;;1.30;;
81374;SDS011;70828;51.158;4.998;2023-07-22T13:27:28;4.53;;;1.60;;
81374;SDS011;70828;51.158;4.998;2023-07-22T13:29:54;1.80;;;0.93;;
81374;SDS011;70828;51.158;4.998;2023-07-22T13:32:22;6.15;;;1.50;;
81374;SDS011;70828;51.158;4.998;2023-07-22T13:34:49;2.95;;;1.50;;
81374;SDS011;70828;51.158;4.998;2023-07-22T13:37:15;4.97;;;1.83;;
81374;SDS011;70828;51.158;4.998;2023-07-22T13:39:43;3.25;;;1.40;;
81374;SDS011;70828;51.158;4.998;2023-07-22T13:42:11;11.30;;;2.72;;
81374;SDS011;70828;51.158;4.998;2023-07-22T13:44:38;7.70;;;1.90;;
81374;SDS011;70828;51.158;4.998;2023-07-22T13:47:05;3.50;;;1.70;;
81374;SDS011;70828;51.158;4.998;2023-07-22T13:49:31;4.63;;;1.50;;
81374;SDS011;70828;51.158;4.998;2023-07-22T13:51:58;4.47;;;1.80;;
81374;SDS011;70828;51.158;4.998;2023-07-22T13:54:25;4.55;;;1.83;;
81374;SDS011;70828;51.158;4.998;2023-07-22T13:56:53;5.35;;;1.63;;
81374;SDS011;70828;51.158;4.998;2023-07-22T13:59:19;9.10;;;2.45;;
81374;SDS011;70828;51.158;4.998;2023-07-22T14:01:46;8.88;;;2.55;;
81374;SDS011;70828;51.158;4.998;2023-07-22T14:04:16;7.30;;;2.67;;
81374;SDS011;70828;51.158;4.998;2023-07-22T14:06:42;3.75;;;1.90;;
81374;SDS011;70828;51.158;4.998;2023-07-22T14:09:09;3.33;;;1.33;;
81374;SDS011;70828;51.158;4.998;2023-07-22T14:11:36;3.83;;;1.83;;
81374;SDS011;70828;51.158;4.998;2023-07-22T14:14:04;6.45;;;1.92;;
81374;SDS011;70828;51.158;4.998;2023-07-22T14:16:30;10.93;;;2.50;;
81374;SDS011;70828;51.158;4.998;2023-07-22T14:18:58;1.88;;;1.20;;
81374;SDS011;70828;51.158;4.998;2023-07-22T14:21:25;4.90;;;1.92;;
81374;SDS011;70828;51.158;4.998;2023-07-22T14:23:52;2.42;;;1.60;;
81374;SDS011;70828;51.158;4.998;2023-07-22T14:26:19;3.20;;;1.15;;
81374;SDS011;70828;51.158;4.998;2023-07-22T14:28:46;3.65;;;1.15;;
81374;SDS011;70828;51.158;4.998;2023-07-22T14:31:14;2.03;;;1.20;;
81374;SDS011;70828;51.158;4.998;2023-07-22T14:33:41;3.80;;;1.15;;
81374;SDS011;70828;51.158;4.998;2023-07-22T14:36:08;2.22;;;1.10;;
81374;SDS011;70828;51.158;4.998;2023-07-22T14:38:34;2.58;;;1.20;;
81374;SDS011;70828;51.158;4.998;2023-07-22T14:41:01;3.58;;;1.55;;
81374;SDS011;70828;51.158;4.998;2023-07-22T14:43:28;2.90;;;1.30;;
81374;SDS011;70828;51.158;4.998;2023-07-22T14:45:54;3.03;;;1.20;;
81374;SDS011;70828;51.158;4.998;2023-07-22T14:48:22;6.95;;;1.67;;
81374;SDS011;70828;51.158;4.998;2023-07-22T14:50:49;3.30;;;1.05;;